createdAt,value
2022-12-06T00:03:54.598Z,-7.12
2022-12-06T00:09:01.577Z,-7.28
2022-12-06T00:14:08.689Z,-7.42
2022-12-06T00:19:16.948Z,-7.55
2022-12-06T00:24:23.923Z,-7.63
2022-12-06T00:29:29.594Z,-7.75
2022-12-06T00:34:35.016Z,-7.77
2022-12-06T00:39:40.445Z,-7.94
2022-12-06T00:44:46.091Z,-7.90
2022-12-06T00:49:51.632Z,-7.88
2022-12-06T00:54:56.702Z,-7.86
2022-12-06T01:00:02.484Z,-7.78
2022-12-06T01:05:08.766Z,-7.72
2022-12-06T01:10:14.781Z,-7.70
2022-12-06T01:15:20.349Z,-7.55
2022-12-06T01:20:26.121Z,-7.52
2022-12-06T01:25:36.124Z,-7.35
2022-12-06T01:30:44.865Z,-7.21
2022-12-06T01:35:50.440Z,-6.97
2022-12-06T01:40:55.891Z,-6.96
2022-12-06T01:46:15.694Z,-6.88
2022-12-06T01:51:22.464Z,-6.58
2022-12-06T01:56:28.677Z,-6.76
2022-12-06T02:01:35.530Z,-6.88
2022-12-06T02:06:41.811Z,-6.81
2022-12-06T02:11:53.606Z,-6.76
2022-12-06T02:17:30.181Z,-6.26
2022-12-06T02:23:05.367Z,-6.59
2022-12-06T02:28:44.856Z,-6.31
2022-12-06T02:33:59.418Z,-6.66
2022-12-06T02:39:12.735Z,-6.83
2022-12-06T02:44:32.134Z,-6.80
2022-12-06T02:49:40.271Z,-6.95
2022-12-06T02:54:49.076Z,-7.48
2022-12-06T02:59:55.590Z,-7.42
2022-12-06T03:05:25.005Z,-7.06
2022-12-06T03:10:52.925Z,-7.20
2022-12-06T03:16:32.115Z,-7.59
2022-12-06T03:22:04.285Z,-7.51
2022-12-06T03:27:22.353Z,-7.80
2022-12-06T03:32:39.374Z,-7.64
2022-12-06T03:37:56.515Z,-7.77
2022-12-06T03:43:08.319Z,-7.97
2022-12-06T03:48:38.174Z,-7.73
2022-12-06T03:54:13.983Z,-7.64
2022-12-06T03:59:33.438Z,-7.65
2022-12-06T04:04:45.056Z,-8.04
2022-12-06T04:09:59.663Z,-8.10
2022-12-06T04:15:09.152Z,-7.85
2022-12-06T04:20:15.136Z,-8.14
2022-12-06T04:25:28.005Z,-8.00
2022-12-06T04:30:57.864Z,-8.44
2022-12-06T04:36:26.753Z,-8.57
2022-12-06T04:41:56.155Z,-8.74
2022-12-06T04:47:08.842Z,-8.93
2022-12-06T04:52:22.549Z,-8.84
2022-12-06T04:57:27.411Z,-8.69
2022-12-06T05:02:33.534Z,-8.82
2022-12-06T05:07:41.209Z,-8.99
2022-12-06T05:12:48.503Z,-8.69
2022-12-06T05:17:57.402Z,-8.57
2022-12-06T05:23:03.096Z,-8.31
2022-12-06T05:28:12.454Z,-8.11
2022-12-06T05:33:18.817Z,-7.90
2022-12-06T05:38:23.758Z,-8.08
2022-12-06T05:43:30.122Z,-8.12
2022-12-06T05:48:35.675Z,-8.20
2022-12-06T05:53:42.293Z,-8.08
2022-12-06T05:58:46.681Z,-7.97
2022-12-06T06:03:50.922Z,-7.87
2022-12-06T06:08:57.562Z,-7.93
2022-12-06T06:14:06.811Z,-7.95
2022-12-06T06:19:11.440Z,-7.66
2022-12-06T06:24:15.661Z,-7.38
2022-12-06T06:29:19.816Z,-7.61
2022-12-06T06:34:26.949Z,-7.52
2022-12-06T06:53:57.732Z,-7.57
2022-12-06T06:59:02.051Z,-7.54
2022-12-06T07:04:06.481Z,-7.61
2022-12-06T07:09:11.864Z,-7.27
2022-12-06T07:14:18.803Z,-7.22
2022-12-06T07:37:13.722Z,-6.71
2022-12-06T07:42:36.798Z,-6.86
2022-12-06T07:47:43.415Z,-6.90
2022-12-06T07:52:50.487Z,-7.04
2022-12-06T07:57:54.820Z,-6.91
2022-12-06T08:02:59.887Z,-7.10
2022-12-06T08:08:04.478Z,-6.92
2022-12-06T08:13:08.773Z,-7.11
2022-12-06T08:18:13.192Z,-6.66
2022-12-06T08:23:17.352Z,-6.30
2022-12-06T08:28:21.674Z,-6.43
2022-12-06T08:33:26.537Z,-6.53
2022-12-06T08:38:30.747Z,-6.42
2022-12-06T08:43:35.088Z,-5.68
2022-12-06T08:48:43.008Z,-5.27
2022-12-06T08:53:47.953Z,-5.51
2022-12-06T08:58:54.546Z,-6.33
2022-12-06T09:04:03.716Z,-6.37
2022-12-06T09:09:09.622Z,-6.02
2022-12-06T09:14:22.003Z,-6.03
2022-12-06T09:19:26.616Z,-5.95
2022-12-06T09:24:32.965Z,-5.77
2022-12-06T09:29:40.808Z,-5.93
2022-12-06T09:34:46.961Z,-6.09
2022-12-06T09:39:58.984Z,-5.65
2022-12-06T09:45:26.902Z,-6.05
2022-12-06T09:50:46.630Z,-6.06
2022-12-06T09:55:56.817Z,-6.16
2022-12-06T10:01:22.769Z,-6.05
2022-12-06T10:06:43.231Z,-6.02
2022-12-06T10:12:21.929Z,-5.86
2022-12-06T10:17:52.824Z,-5.91
2022-12-06T10:23:27.988Z,-5.95
2022-12-06T10:28:39.763Z,-5.97
2022-12-06T10:33:50.066Z,-6.09
2022-12-06T10:39:06.758Z,-6.22
2022-12-06T10:44:48.904Z,-6.35
2022-12-06T10:50:04.036Z,-6.14
2022-12-06T11:01:28.768Z,-6.30
2022-12-06T11:06:53.078Z,-6.29
2022-12-06T11:11:59.038Z,-6.18
2022-12-06T11:17:15.788Z,-6.22
2022-12-06T11:22:40.122Z,-6.12
2022-12-06T11:27:53.605Z,-6.08
2022-12-06T11:32:58.217Z,-5.79
2022-12-06T11:38:07.749Z,-5.91
2022-12-06T11:43:36.530Z,-5.66
2022-12-06T11:48:41.007Z,-5.90
2022-12-06T11:54:03.156Z,-5.76
2022-12-06T11:59:22.082Z,-5.68
2022-12-06T12:04:40.621Z,-6.01
2022-12-06T12:09:55.146Z,-5.88
2022-12-06T12:15:00.344Z,-5.72
2022-12-06T12:20:05.844Z,-5.51
2022-12-06T12:25:24.398Z,-5.62
2022-12-06T12:30:36.577Z,-5.81
2022-12-06T12:42:33.472Z,-5.64
2022-12-06T12:47:37.902Z,-5.63
2022-12-06T12:52:43.408Z,-6.19
2022-12-06T12:57:50.442Z,-6.27
2022-12-06T13:03:00.662Z,-6.41
2022-12-06T13:08:10.803Z,-6.61
2022-12-06T13:13:22.762Z,-6.79
2022-12-06T13:18:30.908Z,-6.89
2022-12-06T13:23:37.534Z,-6.94
2022-12-06T13:28:48.110Z,-7.32
2022-12-06T13:34:07.590Z,-7.65
2022-12-06T13:39:31.425Z,-7.80
2022-12-06T13:45:01.857Z,-8.10
2022-12-06T13:50:25.458Z,-8.44
2022-12-06T13:55:36.507Z,-8.63
2022-12-06T14:00:47.694Z,-8.70
2022-12-06T14:06:17.751Z,-8.88
2022-12-06T14:11:39.934Z,-9.08
2022-12-06T14:17:11.098Z,-9.28
2022-12-06T14:22:24.165Z,-9.35
2022-12-06T14:27:37.464Z,-9.39
2022-12-06T14:33:12.063Z,-9.61
2022-12-06T14:38:47.587Z,-9.05
2022-12-06T14:43:58.480Z,-9.08
2022-12-06T14:49:26.658Z,-9.16
2022-12-06T14:54:51.936Z,-9.20
2022-12-06T15:00:35.333Z,-9.23
2022-12-06T15:05:52.711Z,-9.44
2022-12-06T15:11:43.513Z,-9.61
2022-12-06T15:17:08.661Z,-9.68
2022-12-06T15:22:49.321Z,-9.97
2022-12-06T15:27:59.982Z,-10.10
2022-12-06T15:33:18.789Z,-10.21
2022-12-06T15:38:28.408Z,-10.27
2022-12-06T15:43:40.580Z,-10.24
2022-12-06T15:48:52.095Z,-10.16
2022-12-06T15:54:05.235Z,-9.98
2022-12-06T15:59:17.271Z,-9.92
2022-12-06T16:04:32.374Z,-9.74
2022-12-06T16:09:43.874Z,-9.52
2022-12-06T16:14:54.997Z,-9.56
2022-12-06T16:20:34.438Z,-9.52
2022-12-06T16:25:46.135Z,-9.60
2022-12-06T16:30:57.710Z,-9.89
2022-12-06T16:36:24.068Z,-9.84
2022-12-06T16:41:35.835Z,-9.63
2022-12-06T16:46:47.987Z,-9.65
2022-12-06T16:51:59.966Z,-9.93
2022-12-06T16:57:12.412Z,-10.14
2022-12-06T17:02:36.379Z,-10.05
2022-12-06T17:07:48.029Z,-10.15
2022-12-06T17:13:01.455Z,-10.41
2022-12-06T17:18:13.278Z,-10.31
2022-12-06T17:23:25.360Z,-10.41
2022-12-06T17:28:37.370Z,-10.48
2022-12-06T17:33:48.598Z,-10.47
2022-12-06T17:38:59.923Z,-10.39
2022-12-06T17:44:11.967Z,-10.33
2022-12-06T17:49:25.590Z,-10.32
2022-12-06T17:54:38.434Z,-10.50
2022-12-06T17:59:51.157Z,-10.84
2022-12-06T18:05:03.351Z,-10.82
2022-12-06T18:10:15.764Z,-10.54
2022-12-06T18:15:42.772Z,-10.68
2022-12-06T18:20:54.188Z,-10.81
2022-12-06T18:26:08.181Z,-10.67
2022-12-06T18:31:19.724Z,-10.73
2022-12-06T18:36:29.238Z,-10.65
2022-12-06T18:41:41.648Z,-10.52
2022-12-06T18:46:54.093Z,-10.57
2022-12-06T18:52:05.318Z,-10.52
2022-12-06T18:57:16.643Z,-10.66
2022-12-06T19:02:28.352Z,-10.80
2022-12-06T19:07:40.459Z,-11.02
2022-12-06T19:12:53.131Z,-11.23
2022-12-06T19:18:04.821Z,-11.32
2022-12-06T19:23:16.518Z,-11.31
2022-12-06T19:28:28.377Z,-11.18
2022-12-06T19:33:53.555Z,-11.30
2022-12-06T19:39:06.410Z,-11.35
2022-12-06T19:44:21.107Z,-11.51
2022-12-06T19:49:33.527Z,-11.52
2022-12-06T19:54:44.830Z,-11.66
2022-12-06T19:59:57.561Z,-11.69
2022-12-06T20:05:10.227Z,-11.76
2022-12-06T20:10:21.402Z,-11.77
2022-12-06T20:15:32.593Z,-11.72
2022-12-06T20:20:43.941Z,-11.84
2022-12-06T20:25:55.582Z,-11.98
2022-12-06T20:31:14.325Z,-12.07
2022-12-06T20:36:27.217Z,-12.08
2022-12-06T20:41:39.011Z,-12.08
2022-12-06T20:46:50.913Z,-12.18
2022-12-06T20:52:04.015Z,-11.95
2022-12-06T20:57:15.686Z,-12.10
2022-12-06T21:02:27.811Z,-12.35
2022-12-06T21:07:39.585Z,-12.37
2022-12-06T21:12:51.848Z,-12.26
2022-12-06T21:18:03.349Z,-12.25
2022-12-06T21:23:14.919Z,-12.16
2022-12-06T21:28:26.709Z,-12.19
2022-12-06T21:33:38.128Z,-11.99
2022-12-06T21:38:49.753Z,-12.24
2022-12-06T21:44:01.996Z,-12.26
2022-12-06T21:49:13.786Z,-12.37
2022-12-06T21:54:25.850Z,-12.53
2022-12-06T21:59:37.797Z,-12.41
2022-12-06T22:04:50.005Z,-12.44
2022-12-06T22:10:01.966Z,-12.31
2022-12-06T22:15:14.871Z,-12.33
2022-12-06T22:20:26.736Z,-12.42
2022-12-06T22:25:38.607Z,-12.58
2022-12-06T22:30:50.273Z,-12.26
2022-12-06T22:36:04.313Z,-12.09
2022-12-06T22:41:16.794Z,-11.87
2022-12-06T22:46:32.064Z,-12.12
2022-12-06T22:51:44.783Z,-12.24
2022-12-06T22:56:55.949Z,-12.01
2022-12-06T23:02:08.009Z,-12.58
2022-12-06T23:07:19.769Z,-12.63
2022-12-06T23:12:31.373Z,-12.89
2022-12-06T23:17:43.647Z,-12.78
2022-12-06T23:22:55.755Z,-12.85
2022-12-06T23:28:07.437Z,-12.53
2022-12-06T23:33:22.678Z,-12.70
2022-12-06T23:38:41.671Z,-12.28
2022-12-06T23:43:53.840Z,-12.68
2022-12-06T23:49:05.988Z,-12.53
2022-12-06T23:54:19.442Z,-12.39
2022-12-06T23:59:31.759Z,-12.39
